sensor_id;sensor_type;location;lat;lon;timestamp;pressure;altitude;pressure_sealevel;temperature;humidity
48644;BME280;34928;37.302;-121.984;2023-04-29T00:00:33;100713.0;;;30.95;25.25
48644;BME280;34928;37.302;-121.984;2023-04-29T00:10:42;100709.0;;;31.50;25.15
48644;BME280;34928;37.302;-121.984;2023-04-29T00:20:48;100713.0;;;31.66;25.03
48644;BME280;34928;37.302;-121.984;2023-04-29T00:30:53;100719.0;;;31.07;25.26
48644;BME280;34928;37.302;-121.984;2023-04-29T00:40:58;100722.0;;;31.52;25.12
48644;BME280;34928;37.302;-121.984;2023-04-29T00:51:06;100735.0;;;31.29;25.23
48644;BME280;34928;37.302;-121.984;2023-04-29T01:01:13;100739.0;;;31.33;25.30
48644;BME280;34928;37.302;-121.984;2023-04-29T01:11:21;100738.0;;;32.26;24.43
48644;BME280;34928;37.302;-121.984;2023-04-29T01:21:28;100738.0;;;32.22;24.43
48644;BME280;34928;37.302;-121.984;2023-04-29T01:31:38;100748.0;;;32.52;24.10
48644;BME280;34928;37.302;-121.984;2023-04-29T01:41:56;100754.0;;;32.22;24.28
48644;BME280;34928;37.302;-121.984;2023-04-29T01:52:03;100754.0;;;32.35;24.49
48644;BME280;34928;37.302;-121.984;2023-04-29T02:02:07;100756.0;;;32.17;24.10
48644;BME280;34928;37.302;-121.984;2023-04-29T02:12:13;100767.0;;;32.62;23.71
48644;BME280;34928;37.302;-121.984;2023-04-29T02:22:19;100776.0;;;32.36;23.92
48644;BME280;34928;37.302;-121.984;2023-04-29T02:32:23;100776.0;;;32.20;23.66
48644;BME280;34928;37.302;-121.984;2023-04-29T02:42:28;100789.0;;;32.05;23.80
48644;BME280;34928;37.302;-121.984;2023-04-29T02:52:33;100804.0;;;32.71;23.72
48644;BME280;34928;37.302;-121.984;2023-04-29T03:02:38;100816.0;;;32.20;23.62
48644;BME280;34928;37.302;-121.984;2023-04-29T03:12:42;100828.0;;;32.32;23.68
48644;BME280;34928;37.302;-121.984;2023-04-29T03:22:49;100851.0;;;32.31;23.69
48644;BME280;34928;37.302;-121.984;2023-04-29T03:32:53;100870.0;;;32.19;23.74
48644;BME280;34928;37.302;-121.984;2023-04-29T03:42:59;100894.0;;;32.12;23.78
48644;BME280;34928;37.302;-121.984;2023-04-29T03:53:04;100914.0;;;31.66;23.79
48644;BME280;34928;37.302;-121.984;2023-04-29T04:03:08;100926.0;;;32.44;23.45
48644;BME280;34928;37.302;-121.984;2023-04-29T04:13:13;100941.0;;;32.29;23.42
48644;BME280;34928;37.302;-121.984;2023-04-29T04:23:19;100945.0;;;31.75;23.60
48644;BME280;34928;37.302;-121.984;2023-04-29T04:33:23;100958.0;;;31.75;23.48
48644;BME280;34928;37.302;-121.984;2023-04-29T04:43:28;100968.0;;;31.99;23.38
48644;BME280;34928;37.302;-121.984;2023-04-29T04:53:33;100974.0;;;32.08;23.51
48644;BME280;34928;37.302;-121.984;2023-04-29T05:03:38;100981.0;;;31.86;23.64
48644;BME280;34928;37.302;-121.984;2023-04-29T05:13:44;100983.0;;;31.71;23.91
48644;BME280;34928;37.302;-121.984;2023-04-29T05:23:47;100981.0;;;31.90;23.64
48644;BME280;34928;37.302;-121.984;2023-04-29T05:33:54;100981.0;;;31.81;23.66
48644;BME280;34928;37.302;-121.984;2023-04-29T05:43:58;100988.0;;;31.71;23.62
48644;BME280;34928;37.302;-121.984;2023-04-29T05:54:03;100981.0;;;31.80;23.66
48644;BME280;34928;37.302;-121.984;2023-04-29T06:04:08;100984.0;;;31.54;23.75
48644;BME280;34928;37.302;-121.984;2023-04-29T06:14:12;100985.0;;;31.65;23.51
48644;BME280;34928;37.302;-121.984;2023-04-29T06:24:18;100987.0;;;31.72;23.60
48644;BME280;34928;37.302;-121.984;2023-04-29T06:34:24;100996.0;;;30.99;24.31
48644;BME280;34928;37.302;-121.984;2023-04-29T06:44:38;100996.0;;;30.66;22.79
48644;BME280;34928;37.302;-121.984;2023-04-29T06:54:43;101001.0;;;30.26;21.24
48644;BME280;34928;37.302;-121.984;2023-04-29T07:04:48;101009.0;;;30.60;22.11
48644;BME280;34928;37.302;-121.984;2023-04-29T07:14:52;101014.0;;;30.73;22.45
48644;BME280;34928;37.302;-121.984;2023-04-29T07:24:58;101023.0;;;30.82;22.65
48644;BME280;34928;37.302;-121.984;2023-04-29T07:35:04;101031.0;;;30.86;22.74
48644;BME280;34928;37.302;-121.984;2023-04-29T07:45:13;101038.0;;;30.42;23.04
48644;BME280;34928;37.302;-121.984;2023-04-29T07:55:19;101031.0;;;30.32;23.19
48644;BME280;34928;37.302;-121.984;2023-04-29T08:05:23;101027.0;;;30.56;23.22
48644;BME280;34928;37.302;-121.984;2023-04-29T08:15:29;101017.0;;;30.43;23.44
48644;BME280;34928;37.302;-121.984;2023-04-29T08:25:33;101018.0;;;30.52;23.43
48644;BME280;34928;37.302;-121.984;2023-04-29T08:35:39;101013.0;;;30.55;23.55
48644;BME280;34928;37.302;-121.984;2023-04-29T08:45:42;101013.0;;;30.39;23.77
48644;BME280;34928;37.302;-121.984;2023-04-29T08:55:48;101017.0;;;29.86;24.34
48644;BME280;34928;37.302;-121.984;2023-04-29T09:05:54;101013.0;;;29.93;24.20
48644;BME280;34928;37.302;-121.984;2023-04-29T09:15:59;101001.0;;;29.75;24.27
48644;BME280;34928;37.302;-121.984;2023-04-29T09:26:03;100993.0;;;29.76;24.24
48644;BME280;34928;37.302;-121.984;2023-04-29T09:36:08;100983.0;;;29.61;24.33
48644;BME280;34928;37.302;-121.984;2023-04-29T09:46:12;100982.0;;;29.55;24.22
48644;BME280;34928;37.302;-121.984;2023-04-29T09:56:18;100982.0;;;29.60;24.22
48644;BME280;34928;37.302;-121.984;2023-04-29T10:06:24;100970.0;;;29.46;24.44
48644;BME280;34928;37.302;-121.984;2023-04-29T10:16:30;100970.0;;;29.34;24.49
48644;BME280;34928;37.302;-121.984;2023-04-29T10:26:38;100963.0;;;29.35;24.57
48644;BME280;34928;37.302;-121.984;2023-04-29T10:36:49;100967.0;;;29.09;24.48
48644;BME280;34928;37.302;-121.984;2023-04-29T10:57:20;100976.0;;;29.00;24.76
48644;BME280;34928;37.302;-121.984;2023-04-29T11:07:29;100978.0;;;29.06;24.47
48644;BME280;34928;37.302;-121.984;2023-04-29T11:17:36;100979.0;;;29.10;24.56
48644;BME280;34928;37.302;-121.984;2023-04-29T11:27:45;100975.0;;;29.01;24.91
48644;BME280;34928;37.302;-121.984;2023-04-29T11:37:54;100975.0;;;29.09;24.82
48644;BME280;34928;37.302;-121.984;2023-04-29T11:47:58;100980.0;;;28.81;24.83
48644;BME280;34928;37.302;-121.984;2023-04-29T11:58:04;100988.0;;;28.92;24.92
48644;BME280;34928;37.302;-121.984;2023-04-29T12:08:09;100985.0;;;28.78;24.92
48644;BME280;34928;37.302;-121.984;2023-04-29T12:18:13;100987.0;;;28.41;25.01
48644;BME280;34928;37.302;-121.984;2023-04-29T12:28:18;100995.0;;;28.26;25.20
48644;BME280;34928;37.302;-121.984;2023-04-29T12:38:25;101000.0;;;28.50;25.12
48644;BME280;34928;37.302;-121.984;2023-04-29T12:48:35;101007.0;;;28.37;25.26
48644;BME280;34928;37.302;-121.984;2023-04-29T12:58:38;101013.0;;;28.56;25.05
48644;BME280;34928;37.302;-121.984;2023-04-29T13:08:43;101011.0;;;28.74;24.88
48644;BME280;34928;37.302;-121.984;2023-04-29T13:18:49;101022.0;;;28.33;25.21
48644;BME280;34928;37.302;-121.984;2023-04-29T13:28:53;101027.0;;;28.39;25.10
48644;BME280;34928;37.302;-121.984;2023-04-29T13:38:58;101031.0;;;28.35;25.12
48644;BME280;34928;37.302;-121.984;2023-04-29T13:49:03;101046.0;;;28.38;25.26
48644;BME280;34928;37.302;-121.984;2023-04-29T13:59:08;101051.0;;;28.10;25.36
48644;BME280;34928;37.302;-121.984;2023-04-29T14:09:13;101052.0;;;28.19;25.40
48644;BME280;34928;37.302;-121.984;2023-04-29T14:19:18;101064.0;;;28.50;25.49
48644;BME280;34928;37.302;-121.984;2023-04-29T14:29:23;101068.0;;;28.39;25.56
48644;BME280;34928;37.302;-121.984;2023-04-29T14:39:28;101076.0;;;28.37;24.21
48644;BME280;34928;37.302;-121.984;2023-04-29T14:49:34;101081.0;;;28.03;25.46
48644;BME280;34928;37.302;-121.984;2023-04-29T14:59:38;101082.0;;;28.12;25.46
48644;BME280;34928;37.302;-121.984;2023-04-29T15:09:43;101083.0;;;28.25;25.27
48644;BME280;34928;37.302;-121.984;2023-04-29T15:19:48;101099.0;;;28.01;25.19
48644;BME280;34928;37.302;-121.984;2023-04-29T15:29:53;101099.0;;;28.10;25.50
48644;BME280;34928;37.302;-121.984;2023-04-29T15:39:59;101102.0;;;28.38;25.61
48644;BME280;34928;37.302;-121.984;2023-04-29T15:50:04;101106.0;;;28.31;25.29
48644;BME280;34928;37.302;-121.984;2023-04-29T16:00:09;101110.0;;;28.05;25.50
48644;BME280;34928;37.302;-121.984;2023-04-29T16:10:14;101110.0;;;28.46;24.98
48644;BME280;34928;37.302;-121.984;2023-04-29T16:20:18;101104.0;;;28.12;25.59
48644;BME280;34928;37.302;-121.984;2023-04-29T16:30:24;101103.0;;;28.10;25.59
48644;BME280;34928;37.302;-121.984;2023-04-29T16:40:27;101103.0;;;27.80;25.87
48644;BME280;34928;37.302;-121.984;2023-04-29T16:50:33;101096.0;;;28.62;25.12
48644;BME280;34928;37.302;-121.984;2023-04-29T17:00:38;101094.0;;;28.59;25.06
48644;BME280;34928;37.302;-121.984;2023-04-29T17:10:43;101093.0;;;28.34;25.09
48644;BME280;34928;37.302;-121.984;2023-04-29T17:20:48;101092.0;;;28.36;25.06
48644;BME280;34928;37.302;-121.984;2023-04-29T17:30:53;101098.0;;;28.49;24.95
48644;BME280;34928;37.302;-121.984;2023-04-29T17:40:58;101087.0;;;28.47;24.79
48644;BME280;34928;37.302;-121.984;2023-04-29T17:51:03;101086.0;;;28.69;24.89
48644;BME280;34928;37.302;-121.984;2023-04-29T18:01:08;101087.0;;;28.90;24.84
48644;BME280;34928;37.302;-121.984;2023-04-29T18:11:13;101083.0;;;28.42;25.00
48644;BME280;34928;37.302;-121.984;2023-04-29T18:21:22;101075.0;;;28.59;25.16
48644;BME280;34928;37.302;-121.984;2023-04-29T18:31:28;101063.0;;;28.50;25.06
48644;BME280;34928;37.302;-121.984;2023-04-29T18:41:32;101059.0;;;28.99;24.89
48644;BME280;34928;37.302;-121.984;2023-04-29T18:51:38;101050.0;;;29.03;24.90
48644;BME280;34928;37.302;-121.984;2023-04-29T19:01:43;101051.0;;;29.15;24.85
48644;BME280;34928;37.302;-121.984;2023-04-29T19:11:47;101038.0;;;28.91;24.81
48644;BME280;34928;37.302;-121.984;2023-04-29T19:21:54;101033.0;;;29.19;24.89
48644;BME280;34928;37.302;-121.984;2023-04-29T19:31:58;101030.0;;;29.09;25.03
48644;BME280;34928;37.302;-121.984;2023-04-29T19:42:03;101019.0;;;29.42;24.75
48644;BME280;34928;37.302;-121.984;2023-04-29T19:52:08;101015.0;;;29.18;24.97
48644;BME280;34928;37.302;-121.984;2023-04-29T20:02:12;101008.0;;;29.22;24.80
48644;BME280;34928;37.302;-121.984;2023-04-29T20:12:19;100999.0;;;29.37;24.69
48644;BME280;34928;37.302;-121.984;2023-04-29T20:22:23;101001.0;;;29.39;24.83
48644;BME280;34928;37.302;-121.984;2023-04-29T20:32:27;100996.0;;;29.92;24.66
48644;BME280;34928;37.302;-121.984;2023-04-29T20:42:34;100991.0;;;29.97;24.64
48644;BME280;34928;37.302;-121.984;2023-04-29T20:52:37;100977.0;;;29.87;24.58
48644;BME280;34928;37.302;-121.984;2023-04-29T21:02:43;100978.0;;;29.74;24.58
48644;BME280;34928;37.302;-121.984;2023-04-29T21:12:48;100970.0;;;30.03;24.83
48644;BME280;34928;37.302;-121.984;2023-04-29T21:22:54;100966.0;;;29.94;24.80
48644;BME280;34928;37.302;-121.984;2023-04-29T21:32:58;100960.0;;;30.00;24.83
48644;BME280;34928;37.302;-121.984;2023-04-29T21:43:03;100953.0;;;30.02;24.90
48644;BME280;34928;37.302;-121.984;2023-04-29T21:53:08;100948.0;;;30.19;24.84
48644;BME280;34928;37.302;-121.984;2023-04-29T22:03:18;100940.0;;;30.10;24.78
48644;BME280;34928;37.302;-121.984;2023-04-29T22:13:23;100929.0;;;30.26;24.78
48644;BME280;34928;37.302;-121.984;2023-04-29T22:23:28;100916.0;;;30.56;24.78
48644;BME280;34928;37.302;-121.984;2023-04-29T22:33:33;100904.0;;;30.53;26.24
48644;BME280;34928;37.302;-121.984;2023-04-29T22:43:38;100886.0;;;30.90;26.19
48644;BME280;34928;37.302;-121.984;2023-04-29T22:53:43;100873.0;;;30.71;26.85
48644;BME280;34928;37.302;-121.984;2023-04-29T23:03:48;100856.0;;;30.52;27.15
48644;BME280;34928;37.302;-121.984;2023-04-29T23:13:53;100846.0;;;30.82;26.91
48644;BME280;34928;37.302;-121.984;2023-04-29T23:23:57;100839.0;;;30.72;27.00
